sensor_id;sensor_type;location;lat;lon;timestamp;P1;durP1;ratioP1;P2;durP2;ratioP2
28455;SDS011;15682;56.742;38.866;2022-12-24T00:00:17;9.6;;;5.2;;
28455;SDS011;15682;56.742;38.866;2022-12-24T00:02:17;8.0;;;5.9;;
28455;SDS011;15682;56.742;38.866;2022-12-24T00:04:17;7.7;;;5.7;;
28455;SDS011;15682;56.742;38.866;2022-12-24T00:06:18;6.9;;;4.9;;
28455;SDS011;15682;56.742;38.866;2022-12-24T00:08:17;7.2;;;5.7;;
28455;SDS011;15682;56.742;38.866;2022-12-24T00:10:17;7.5;;;5.7;;
28455;SDS011;15682;56.742;38.866;2022-12-24T00:12:17;7.6;;;5.7;;
28455;SDS011;15682;56.742;38.866;2022-12-24T00:14:17;8.0;;;6.0;;
28455;SDS011;15682;56.742;38.866;2022-12-24T00:16:17;7.1;;;5.6;;
28455;SDS011;15682;56.742;38.866;2022-12-24T00:18:17;7.4;;;5.5;;
28455;SDS011;15682;56.742;38.866;2022-12-24T00:20:17;6.9;;;5.5;;
28455;SDS011;15682;56.742;38.866;2022-12-24T00:22:17;9.9;;;6.9;;
28455;SDS011;15682;56.742;38.866;2022-12-24T00:24:17;11.3;;;7.0;;
28455;SDS011;15682;56.742;38.866;2022-12-24T00:26:17;8.6;;;6.3;;
28455;SDS011;15682;56.742;38.866;2022-12-24T00:28:17;8.1;;;5.6;;
28455;SDS011;15682;56.742;38.866;2022-12-24T00:30:17;10.3;;;6.2;;
28455;SDS011;15682;56.742;38.866;2022-12-24T00:32:17;8.5;;;5.8;;
28455;SDS011;15682;56.742;38.866;2022-12-24T00:34:17;9.1;;;6.8;;
28455;SDS011;15682;56.742;38.866;2022-12-24T00:36:18;10.4;;;7.7;;
28455;SDS011;15682;56.742;38.866;2022-12-24T00:38:17;10.6;;;7.2;;
28455;SDS011;15682;56.742;38.866;2022-12-24T00:40:17;8.5;;;6.5;;
28455;SDS011;15682;56.742;38.866;2022-12-24T00:42:17;7.9;;;6.1;;
28455;SDS011;15682;56.742;38.866;2022-12-24T00:44:17;7.0;;;5.1;;
28455;SDS011;15682;56.742;38.866;2022-12-24T00:46:17;6.6;;;4.8;;
28455;SDS011;15682;56.742;38.866;2022-12-24T00:48:17;6.9;;;5.1;;
28455;SDS011;15682;56.742;38.866;2022-12-24T00:50:17;6.9;;;4.9;;
28455;SDS011;15682;56.742;38.866;2022-12-24T00:52:16;7.7;;;5.3;;
28455;SDS011;15682;56.742;38.866;2022-12-24T00:54:16;6.3;;;5.0;;
28455;SDS011;15682;56.742;38.866;2022-12-24T00:56:16;7.1;;;4.8;;
28455;SDS011;15682;56.742;38.866;2022-12-24T00:58:16;7.4;;;5.0;;
28455;SDS011;15682;56.742;38.866;2022-12-24T01:00:17;8.0;;;4.8;;
28455;SDS011;15682;56.742;38.866;2022-12-24T01:02:16;7.3;;;5.1;;
28455;SDS011;15682;56.742;38.866;2022-12-24T01:04:16;5.9;;;4.5;;
28455;SDS011;15682;56.742;38.866;2022-12-24T01:06:17;6.8;;;5.1;;
28455;SDS011;15682;56.742;38.866;2022-12-24T01:08:16;6.6;;;5.0;;
28455;SDS011;15682;56.742;38.866;2022-12-24T01:10:17;6.6;;;5.3;;
28455;SDS011;15682;56.742;38.866;2022-12-24T01:12:16;7.9;;;5.2;;
28455;SDS011;15682;56.742;38.866;2022-12-24T01:14:16;6.5;;;5.1;;
28455;SDS011;15682;56.742;38.866;2022-12-24T01:16:17;7.5;;;5.7;;
28455;SDS011;15682;56.742;38.866;2022-12-24T01:18:16;8.2;;;5.9;;
28455;SDS011;15682;56.742;38.866;2022-12-24T01:20:16;8.5;;;5.9;;
28455;SDS011;15682;56.742;38.866;2022-12-24T01:22:16;7.6;;;6.0;;
28455;SDS011;15682;56.742;38.866;2022-12-24T01:24:16;9.2;;;7.1;;
28455;SDS011;15682;56.742;38.866;2022-12-24T01:26:16;11.1;;;6.9;;
28455;SDS011;15682;56.742;38.866;2022-12-24T01:28:16;8.3;;;6.2;;
28455;SDS011;15682;56.742;38.866;2022-12-24T01:30:16;8.3;;;6.0;;
28455;SDS011;15682;56.742;38.866;2022-12-24T01:32:16;10.3;;;7.1;;
28455;SDS011;15682;56.742;38.866;2022-12-24T01:34:16;10.8;;;7.3;;
28455;SDS011;15682;56.742;38.866;2022-12-24T01:36:16;12.6;;;8.0;;
28455;SDS011;15682;56.742;38.866;2022-12-24T01:38:16;9.6;;;7.1;;
28455;SDS011;15682;56.742;38.866;2022-12-24T01:40:16;9.8;;;6.9;;
28455;SDS011;15682;56.742;38.866;2022-12-24T01:42:17;10.5;;;7.6;;
28455;SDS011;15682;56.742;38.866;2022-12-24T01:44:18;10.3;;;7.3;;
28455;SDS011;15682;56.742;38.866;2022-12-24T01:46:17;9.7;;;7.1;;
28455;SDS011;15682;56.742;38.866;2022-12-24T01:48:23;10.4;;;7.4;;
28455;SDS011;15682;56.742;38.866;2022-12-24T01:50:16;10.0;;;7.8;;
28455;SDS011;15682;56.742;38.866;2022-12-24T01:52:17;11.5;;;7.6;;
28455;SDS011;15682;56.742;38.866;2022-12-24T01:54:17;11.2;;;7.9;;
28455;SDS011;15682;56.742;38.866;2022-12-24T01:56:16;9.5;;;6.7;;
28455;SDS011;15682;56.742;38.866;2022-12-24T01:58:16;10.2;;;7.3;;
28455;SDS011;15682;56.742;38.866;2022-12-24T02:00:16;11.1;;;7.2;;
28455;SDS011;15682;56.742;38.866;2022-12-24T02:02:16;10.0;;;6.7;;
28455;SDS011;15682;56.742;38.866;2022-12-24T02:04:16;10.0;;;7.1;;
28455;SDS011;15682;56.742;38.866;2022-12-24T02:06:16;11.0;;;8.0;;
28455;SDS011;15682;56.742;38.866;2022-12-24T02:08:17;12.0;;;7.7;;
28455;SDS011;15682;56.742;38.866;2022-12-24T02:10:16;11.0;;;7.9;;
28455;SDS011;15682;56.742;38.866;2022-12-24T02:12:16;12.7;;;8.0;;
28455;SDS011;15682;56.742;38.866;2022-12-24T02:14:16;10.6;;;8.1;;
28455;SDS011;15682;56.742;38.866;2022-12-24T02:16:20;9.3;;;7.2;;
28455;SDS011;15682;56.742;38.866;2022-12-24T02:18:18;11.6;;;8.1;;
28455;SDS011;15682;56.742;38.866;2022-12-24T02:20:24;11.7;;;7.8;;
28455;SDS011;15682;56.742;38.866;2022-12-24T02:22:16;9.7;;;7.4;;
28455;SDS011;15682;56.742;38.866;2022-12-24T02:26:20;10.4;;;7.3;;
28455;SDS011;15682;56.742;38.866;2022-12-24T02:28:19;10.7;;;7.3;;
28455;SDS011;15682;56.742;38.866;2022-12-24T02:30:17;10.1;;;7.2;;
28455;SDS011;15682;56.742;38.866;2022-12-24T02:32:17;9.8;;;7.1;;
28455;SDS011;15682;56.742;38.866;2022-12-24T02:34:17;11.1;;;8.5;;
28455;SDS011;15682;56.742;38.866;2022-12-24T02:36:18;10.3;;;7.6;;
28455;SDS011;15682;56.742;38.866;2022-12-24T02:38:18;10.7;;;8.0;;
28455;SDS011;15682;56.742;38.866;2022-12-24T02:40:17;9.6;;;7.4;;
28455;SDS011;15682;56.742;38.866;2022-12-24T02:42:18;11.2;;;7.4;;
28455;SDS011;15682;56.742;38.866;2022-12-24T02:44:16;10.1;;;7.0;;
28455;SDS011;15682;56.742;38.866;2022-12-24T02:46:16;13.5;;;7.6;;
28455;SDS011;15682;56.742;38.866;2022-12-24T02:48:16;9.8;;;7.3;;
28455;SDS011;15682;56.742;38.866;2022-12-24T02:50:16;9.2;;;7.1;;
28455;SDS011;15682;56.742;38.866;2022-12-24T02:54:16;10.6;;;7.5;;
28455;SDS011;15682;56.742;38.866;2022-12-24T02:56:21;10.1;;;7.1;;
28455;SDS011;15682;56.742;38.866;2022-12-24T02:58:20;9.4;;;6.9;;
28455;SDS011;15682;56.742;38.866;2022-12-24T03:00:17;8.7;;;6.1;;
28455;SDS011;15682;56.742;38.866;2022-12-24T03:02:18;8.2;;;6.3;;
28455;SDS011;15682;56.742;38.866;2022-12-24T03:04:18;10.0;;;7.4;;
28455;SDS011;15682;56.742;38.866;2022-12-24T03:06:20;10.4;;;7.2;;
28455;SDS011;15682;56.742;38.866;2022-12-24T03:08:18;9.1;;;6.6;;
28455;SDS011;15682;56.742;38.866;2022-12-24T03:10:17;9.2;;;6.5;;
28455;SDS011;15682;56.742;38.866;2022-12-24T03:12:17;11.0;;;7.4;;
28455;SDS011;15682;56.742;38.866;2022-12-24T03:14:16;8.9;;;6.7;;
28455;SDS011;15682;56.742;38.866;2022-12-24T03:16:16;11.4;;;7.7;;
28455;SDS011;15682;56.742;38.866;2022-12-24T03:18:17;10.2;;;7.5;;
28455;SDS011;15682;56.742;38.866;2022-12-24T03:20:17;9.5;;;7.3;;
28455;SDS011;15682;56.742;38.866;2022-12-24T03:22:16;10.5;;;6.8;;
28455;SDS011;15682;56.742;38.866;2022-12-24T03:24:16;12.1;;;8.2;;
28455;SDS011;15682;56.742;38.866;2022-12-24T03:26:16;10.5;;;7.1;;
28455;SDS011;15682;56.742;38.866;2022-12-24T03:28:16;10.7;;;7.6;;
28455;SDS011;15682;56.742;38.866;2022-12-24T03:30:16;13.7;;;7.0;;
28455;SDS011;15682;56.742;38.866;2022-12-24T03:32:16;10.8;;;7.0;;
28455;SDS011;15682;56.742;38.866;2022-12-24T03:34:16;10.1;;;6.6;;
28455;SDS011;15682;56.742;38.866;2022-12-24T03:36:16;10.6;;;6.2;;
28455;SDS011;15682;56.742;38.866;2022-12-24T03:38:16;9.2;;;6.3;;
28455;SDS011;15682;56.742;38.866;2022-12-24T03:40:16;10.2;;;6.7;;
28455;SDS011;15682;56.742;38.866;2022-12-24T03:42:16;8.5;;;6.0;;
28455;SDS011;15682;56.742;38.866;2022-12-24T03:44:16;12.0;;;7.7;;
28455;SDS011;15682;56.742;38.866;2022-12-24T03:46:16;11.7;;;7.3;;
28455;SDS011;15682;56.742;38.866;2022-12-24T03:48:16;10.2;;;6.8;;
28455;SDS011;15682;56.742;38.866;2022-12-24T03:50:16;9.8;;;6.1;;
28455;SDS011;15682;56.742;38.866;2022-12-24T03:52:16;11.3;;;6.6;;
28455;SDS011;15682;56.742;38.866;2022-12-24T03:54:16;9.3;;;6.4;;
28455;SDS011;15682;56.742;38.866;2022-12-24T03:56:16;10.8;;;6.8;;
28455;SDS011;15682;56.742;38.866;2022-12-24T03:58:16;10.3;;;6.9;;
28455;SDS011;15682;56.742;38.866;2022-12-24T04:00:16;10.1;;;6.5;;
28455;SDS011;15682;56.742;38.866;2022-12-24T04:02:16;10.1;;;6.0;;
28455;SDS011;15682;56.742;38.866;2022-12-24T04:04:16;8.5;;;6.3;;
28455;SDS011;15682;56.742;38.866;2022-12-24T04:06:16;8.5;;;5.7;;
28455;SDS011;15682;56.742;38.866;2022-12-24T04:08:16;8.1;;;5.8;;
28455;SDS011;15682;56.742;38.866;2022-12-24T04:10:16;7.9;;;5.4;;
28455;SDS011;15682;56.742;38.866;2022-12-24T04:12:16;9.0;;;6.2;;
28455;SDS011;15682;56.742;38.866;2022-12-24T04:14:15;7.8;;;5.7;;
28455;SDS011;15682;56.742;38.866;2022-12-24T04:16:16;8.3;;;5.8;;
28455;SDS011;15682;56.742;38.866;2022-12-24T04:18:16;8.7;;;5.5;;
28455;SDS011;15682;56.742;38.866;2022-12-24T04:20:16;8.3;;;6.1;;
28455;SDS011;15682;56.742;38.866;2022-12-24T04:22:16;8.4;;;6.0;;
28455;SDS011;15682;56.742;38.866;2022-12-24T04:24:15;8.4;;;6.1;;
28455;SDS011;15682;56.742;38.866;2022-12-24T04:26:16;8.8;;;6.5;;
28455;SDS011;15682;56.742;38.866;2022-12-24T04:28:16;8.9;;;6.2;;
28455;SDS011;15682;56.742;38.866;2022-12-24T04:30:15;9.8;;;6.0;;
28455;SDS011;15682;56.742;38.866;2022-12-24T04:32:15;8.7;;;6.3;;
28455;SDS011;15682;56.742;38.866;2022-12-24T04:34:16;8.7;;;6.5;;
28455;SDS011;15682;56.742;38.866;2022-12-24T04:36:16;10.2;;;6.7;;
28455;SDS011;15682;56.742;38.866;2022-12-24T04:38:15;9.8;;;6.7;;
28455;SDS011;15682;56.742;38.866;2022-12-24T04:40:16;10.2;;;6.7;;
28455;SDS011;15682;56.742;38.866;2022-12-24T04:42:15;9.4;;;6.9;;
28455;SDS011;15682;56.742;38.866;2022-12-24T04:44:15;11.3;;;7.3;;
28455;SDS011;15682;56.742;38.866;2022-12-24T04:46:16;12.2;;;8.2;;
28455;SDS011;15682;56.742;38.866;2022-12-24T04:48:15;10.4;;;7.5;;
28455;SDS011;15682;56.742;38.866;2022-12-24T04:50:15;11.7;;;8.0;;
28455;SDS011;15682;56.742;38.866;2022-12-24T04:52:15;11.8;;;7.9;;
28455;SDS011;15682;56.742;38.866;2022-12-24T04:54:15;11.4;;;7.5;;
28455;SDS011;15682;56.742;38.866;2022-12-24T04:56:16;13.1;;;8.3;;
28455;SDS011;15682;56.742;38.866;2022-12-24T04:58:15;12.6;;;8.2;;
28455;SDS011;15682;56.742;38.866;2022-12-24T05:00:15;14.3;;;8.4;;
28455;SDS011;15682;56.742;38.866;2022-12-24T05:02:15;15.2;;;8.6;;
28455;SDS011;15682;56.742;38.866;2022-12-24T05:04:15;13.7;;;8.2;;
28455;SDS011;15682;56.742;38.866;2022-12-24T05:06:16;12.1;;;8.3;;
28455;SDS011;15682;56.742;38.866;2022-12-24T05:08:15;11.4;;;8.0;;
28455;SDS011;15682;56.742;38.866;2022-12-24T05:10:15;11.3;;;8.1;;
28455;SDS011;15682;56.742;38.866;2022-12-24T05:12:15;12.1;;;8.2;;
28455;SDS011;15682;56.742;38.866;2022-12-24T05:14:15;11.7;;;8.4;;
28455;SDS011;15682;56.742;38.866;2022-12-24T05:16:17;11.2;;;8.3;;
28455;SDS011;15682;56.742;38.866;2022-12-24T05:18:15;11.7;;;8.8;;
28455;SDS011;15682;56.742;38.866;2022-12-24T05:20:15;14.0;;;9.6;;
28455;SDS011;15682;56.742;38.866;2022-12-24T05:22:15;13.8;;;9.1;;
28455;SDS011;15682;56.742;38.866;2022-12-24T05:24:15;12.2;;;8.1;;
28455;SDS011;15682;56.742;38.866;2022-12-24T05:26:16;11.7;;;8.6;;
28455;SDS011;15682;56.742;38.866;2022-12-24T05:28:15;15.1;;;9.5;;
28455;SDS011;15682;56.742;38.866;2022-12-24T05:30:15;14.0;;;9.5;;
28455;SDS011;15682;56.742;38.866;2022-12-24T05:32:15;13.9;;;9.4;;
28455;SDS011;15682;56.742;38.866;2022-12-24T05:34:15;14.8;;;9.7;;
28455;SDS011;15682;56.742;38.866;2022-12-24T05:36:15;11.6;;;8.0;;
28455;SDS011;15682;56.742;38.866;2022-12-24T05:38:15;11.5;;;8.3;;
28455;SDS011;15682;56.742;38.866;2022-12-24T05:40:15;12.8;;;8.6;;
28455;SDS011;15682;56.742;38.866;2022-12-24T05:42:15;13.2;;;8.3;;
28455;SDS011;15682;56.742;38.866;2022-12-24T05:44:15;13.4;;;8.8;;
28455;SDS011;15682;56.742;38.866;2022-12-24T05:46:16;13.6;;;9.0;;
28455;SDS011;15682;56.742;38.866;2022-12-24T05:48:15;19.3;;;9.7;;
28455;SDS011;15682;56.742;38.866;2022-12-24T05:50:15;18.0;;;9.2;;
28455;SDS011;15682;56.742;38.866;2022-12-24T05:52:15;16.3;;;9.2;;
28455;SDS011;15682;56.742;38.866;2022-12-24T05:54:15;16.7;;;9.8;;
28455;SDS011;15682;56.742;38.866;2022-12-24T05:56:16;14.5;;;9.6;;
28455;SDS011;15682;56.742;38.866;2022-12-24T05:58:15;13.5;;;9.0;;
28455;SDS011;15682;56.742;38.866;2022-12-24T06:00:15;13.5;;;9.0;;
28455;SDS011;15682;56.742;38.866;2022-12-24T06:02:15;12.7;;;9.2;;
28455;SDS011;15682;56.742;38.866;2022-12-24T06:04:15;12.9;;;9.2;;
28455;SDS011;15682;56.742;38.866;2022-12-24T06:06:15;15.8;;;9.7;;
28455;SDS011;15682;56.742;38.866;2022-12-24T06:08:15;15.4;;;9.8;;
28455;SDS011;15682;56.742;38.866;2022-12-24T06:10:15;13.7;;;9.1;;
28455;SDS011;15682;56.742;38.866;2022-12-24T06:12:15;13.9;;;9.7;;
28455;SDS011;15682;56.742;38.866;2022-12-24T06:14:15;14.1;;;9.5;;
28455;SDS011;15682;56.742;38.866;2022-12-24T06:16:15;15.4;;;9.2;;
28455;SDS011;15682;56.742;38.866;2022-12-24T06:18:14;12.6;;;9.2;;
28455;SDS011;15682;56.742;38.866;2022-12-24T06:20:14;13.3;;;8.8;;
28455;SDS011;15682;56.742;38.866;2022-12-24T06:22:14;13.5;;;9.5;;
28455;SDS011;15682;56.742;38.866;2022-12-24T06:24:14;13.8;;;8.9;;
28455;SDS011;15682;56.742;38.866;2022-12-24T06:26:15;15.5;;;8.7;;
28455;SDS011;15682;56.742;38.866;2022-12-24T06:28:15;13.1;;;8.8;;
28455;SDS011;15682;56.742;38.866;2022-12-24T06:30:14;14.0;;;9.3;;
28455;SDS011;15682;56.742;38.866;2022-12-24T06:32:14;13.7;;;9.9;;
28455;SDS011;15682;56.742;38.866;2022-12-24T06:34:14;14.4;;;9.7;;
28455;SDS011;15682;56.742;38.866;2022-12-24T06:36:15;14.0;;;9.6;;
28455;SDS011;15682;56.742;38.866;2022-12-24T06:38:14;18.4;;;10.5;;
28455;SDS011;15682;56.742;38.866;2022-12-24T06:40:14;14.5;;;10.0;;
28455;SDS011;15682;56.742;38.866;2022-12-24T06:42:14;15.1;;;10.2;;
28455;SDS011;15682;56.742;38.866;2022-12-24T06:44:14;15.8;;;9.7;;
28455;SDS011;15682;56.742;38.866;2022-12-24T06:46:14;15.0;;;10.3;;
28455;SDS011;15682;56.742;38.866;2022-12-24T06:48:14;17.7;;;11.0;;
28455;SDS011;15682;56.742;38.866;2022-12-24T06:50:14;15.7;;;10.9;;
28455;SDS011;15682;56.742;38.866;2022-12-24T06:52:14;15.9;;;11.2;;
28455;SDS011;15682;56.742;38.866;2022-12-24T06:54:14;18.7;;;12.1;;
28455;SDS011;15682;56.742;38.866;2022-12-24T06:56:14;17.3;;;11.8;;
28455;SDS011;15682;56.742;38.866;2022-12-24T06:58:14;19.5;;;12.5;;
28455;SDS011;15682;56.742;38.866;2022-12-24T07:00:14;17.4;;;11.8;;
28455;SDS011;15682;56.742;38.866;2022-12-24T07:02:14;17.9;;;11.8;;
28455;SDS011;15682;56.742;38.866;2022-12-24T07:04:14;17.7;;;12.0;;
28455;SDS011;15682;56.742;38.866;2022-12-24T07:06:16;19.4;;;12.7;;
28455;SDS011;15682;56.742;38.866;2022-12-24T07:08:14;20.6;;;12.5;;
28455;SDS011;15682;56.742;38.866;2022-12-24T07:10:14;21.1;;;13.2;;
28455;SDS011;15682;56.742;38.866;2022-12-24T07:12:14;19.6;;;12.8;;
28455;SDS011;15682;56.742;38.866;2022-12-24T07:14:14;20.0;;;12.6;;
28455;SDS011;15682;56.742;38.866;2022-12-24T07:16:14;20.5;;;13.1;;
28455;SDS011;15682;56.742;38.866;2022-12-24T07:18:14;21.7;;;13.0;;
28455;SDS011;15682;56.742;38.866;2022-12-24T07:20:14;21.2;;;13.4;;
28455;SDS011;15682;56.742;38.866;2022-12-24T07:22:14;20.4;;;12.6;;
28455;SDS011;15682;56.742;38.866;2022-12-24T07:24:14;23.7;;;12.7;;
28455;SDS011;15682;56.742;38.866;2022-12-24T07:26:14;20.1;;;12.4;;
28455;SDS011;15682;56.742;38.866;2022-12-24T07:28:14;33.9;;;14.2;;
28455;SDS011;15682;56.742;38.866;2022-12-24T07:30:14;26.8;;;13.1;;
28455;SDS011;15682;56.742;38.866;2022-12-24T07:32:14;23.2;;;12.9;;
28455;SDS011;15682;56.742;38.866;2022-12-24T07:34:14;21.1;;;13.3;;
28455;SDS011;15682;56.742;38.866;2022-12-24T07:36:14;23.5;;;13.6;;
28455;SDS011;15682;56.742;38.866;2022-12-24T07:38:13;23.0;;;14.4;;
28455;SDS011;15682;56.742;38.866;2022-12-24T07:40:14;18.5;;;12.2;;
28455;SDS011;15682;56.742;38.866;2022-12-24T07:42:13;20.3;;;12.8;;
28455;SDS011;15682;56.742;38.866;2022-12-24T07:44:13;20.2;;;13.1;;
28455;SDS011;15682;56.742;38.866;2022-12-24T07:46:13;21.1;;;13.5;;
28455;SDS011;15682;56.742;38.866;2022-12-24T07:48:13;19.8;;;13.1;;
28455;SDS011;15682;56.742;38.866;2022-12-24T07:50:13;21.3;;;13.4;;
28455;SDS011;15682;56.742;38.866;2022-12-24T07:52:13;20.2;;;12.5;;
28455;SDS011;15682;56.742;38.866;2022-12-24T07:54:13;20.8;;;12.8;;
28455;SDS011;15682;56.742;38.866;2022-12-24T07:56:14;18.8;;;12.2;;
28455;SDS011;15682;56.742;38.866;2022-12-24T07:58:13;20.4;;;12.5;;
28455;SDS011;15682;56.742;38.866;2022-12-24T08:00:14;20.1;;;12.3;;
28455;SDS011;15682;56.742;38.866;2022-12-24T08:02:13;22.0;;;13.0;;
28455;SDS011;15682;56.742;38.866;2022-12-24T08:04:13;21.6;;;14.0;;
28455;SDS011;15682;56.742;38.866;2022-12-24T08:06:13;21.7;;;13.8;;
28455;SDS011;15682;56.742;38.866;2022-12-24T08:08:13;21.2;;;12.9;;
28455;SDS011;15682;56.742;38.866;2022-12-24T08:10:13;21.7;;;12.7;;
28455;SDS011;15682;56.742;38.866;2022-12-24T08:12:13;21.9;;;12.7;;
28455;SDS011;15682;56.742;38.866;2022-12-24T08:14:13;19.8;;;12.7;;
28455;SDS011;15682;56.742;38.866;2022-12-24T08:16:13;20.5;;;12.6;;
28455;SDS011;15682;56.742;38.866;2022-12-24T08:18:13;18.0;;;12.3;;
28455;SDS011;15682;56.742;38.866;2022-12-24T08:20:13;19.3;;;12.1;;
28455;SDS011;15682;56.742;38.866;2022-12-24T08:22:14;21.0;;;13.0;;
28455;SDS011;15682;56.742;38.866;2022-12-24T08:24:13;19.3;;;11.7;;
28455;SDS011;15682;56.742;38.866;2022-12-24T08:26:13;20.9;;;12.8;;
28455;SDS011;15682;56.742;38.866;2022-12-24T08:28:14;18.9;;;12.2;;
28455;SDS011;15682;56.742;38.866;2022-12-24T08:30:13;18.6;;;12.2;;
28455;SDS011;15682;56.742;38.866;2022-12-24T08:32:13;20.3;;;12.2;;
28455;SDS011;15682;56.742;38.866;2022-12-24T08:34:13;19.7;;;12.3;;
28455;SDS011;15682;56.742;38.866;2022-12-24T08:36:13;22.7;;;12.4;;
28455;SDS011;15682;56.742;38.866;2022-12-24T08:38:13;19.2;;;11.9;;
28455;SDS011;15682;56.742;38.866;2022-12-24T08:40:13;25.0;;;14.0;;
28455;SDS011;15682;56.742;38.866;2022-12-24T08:42:13;18.6;;;11.9;;
28455;SDS011;15682;56.742;38.866;2022-12-24T08:44:13;19.7;;;12.0;;
28455;SDS011;15682;56.742;38.866;2022-12-24T08:46:13;20.0;;;12.1;;
28455;SDS011;15682;56.742;38.866;2022-12-24T08:48:13;19.5;;;11.8;;
28455;SDS011;15682;56.742;38.866;2022-12-24T08:50:13;19.4;;;12.0;;
28455;SDS011;15682;56.742;38.866;2022-12-24T08:52:13;18.6;;;11.9;;
28455;SDS011;15682;56.742;38.866;2022-12-24T08:54:13;22.0;;;12.0;;
28455;SDS011;15682;56.742;38.866;2022-12-24T08:56:13;18.5;;;11.7;;
28455;SDS011;15682;56.742;38.866;2022-12-24T08:58:13;19.9;;;11.8;;
28455;SDS011;15682;56.742;38.866;2022-12-24T09:00:13;19.3;;;11.4;;
28455;SDS011;15682;56.742;38.866;2022-12-24T09:02:12;20.1;;;11.7;;
28455;SDS011;15682;56.742;38.866;2022-12-24T09:04:12;18.0;;;11.6;;
28455;SDS011;15682;56.742;38.866;2022-12-24T09:06:12;18.8;;;11.9;;
28455;SDS011;15682;56.742;38.866;2022-12-24T09:08:12;20.7;;;13.0;;
28455;SDS011;15682;56.742;38.866;2022-12-24T09:10:12;20.7;;;13.1;;
28455;SDS011;15682;56.742;38.866;2022-12-24T09:12:12;19.0;;;12.2;;
28455;SDS011;15682;56.742;38.866;2022-12-24T09:14:12;20.3;;;12.4;;
28455;SDS011;15682;56.742;38.866;2022-12-24T09:16:12;21.7;;;12.4;;
28455;SDS011;15682;56.742;38.866;2022-12-24T09:18:12;19.8;;;12.1;;
28455;SDS011;15682;56.742;38.866;2022-12-24T09:20:12;20.4;;;12.1;;
28455;SDS011;15682;56.742;38.866;2022-12-24T09:22:12;20.1;;;12.2;;
28455;SDS011;15682;56.742;38.866;2022-12-24T09:24:12;19.2;;;11.7;;
28455;SDS011;15682;56.742;38.866;2022-12-24T09:26:13;20.3;;;12.2;;
28455;SDS011;15682;56.742;38.866;2022-12-24T09:28:12;18.3;;;11.2;;
28455;SDS011;15682;56.742;38.866;2022-12-24T09:30:12;19.1;;;11.4;;
28455;SDS011;15682;56.742;38.866;2022-12-24T09:32:12;18.8;;;11.4;;
28455;SDS011;15682;56.742;38.866;2022-12-24T09:34:12;18.0;;;11.2;;
28455;SDS011;15682;56.742;38.866;2022-12-24T09:36:12;20.8;;;11.5;;
28455;SDS011;15682;56.742;38.866;2022-12-24T09:38:12;17.4;;;11.0;;
28455;SDS011;15682;56.742;38.866;2022-12-24T09:40:15;18.2;;;11.5;;
28455;SDS011;15682;56.742;38.866;2022-12-24T09:42:15;19.7;;;11.7;;
28455;SDS011;15682;56.742;38.866;2022-12-24T09:44:16;18.3;;;10.9;;
28455;SDS011;15682;56.742;38.866;2022-12-24T09:46:13;15.9;;;10.1;;
28455;SDS011;15682;56.742;38.866;2022-12-24T09:48:12;18.0;;;10.5;;
28455;SDS011;15682;56.742;38.866;2022-12-24T09:50:17;16.9;;;9.7;;
28455;SDS011;15682;56.742;38.866;2022-12-24T09:52:13;16.9;;;10.2;;
28455;SDS011;15682;56.742;38.866;2022-12-24T09:54:13;17.2;;;9.8;;
28455;SDS011;15682;56.742;38.866;2022-12-24T09:56:12;16.2;;;9.7;;
28455;SDS011;15682;56.742;38.866;2022-12-24T09:58:15;18.4;;;10.0;;
28455;SDS011;15682;56.742;38.866;2022-12-24T10:00:15;15.9;;;10.0;;
28455;SDS011;15682;56.742;38.866;2022-12-24T10:02:12;16.7;;;11.1;;
28455;SDS011;15682;56.742;38.866;2022-12-24T10:04:12;16.1;;;9.8;;
28455;SDS011;15682;56.742;38.866;2022-12-24T10:06:12;15.5;;;9.6;;
28455;SDS011;15682;56.742;38.866;2022-12-24T10:08:13;15.2;;;9.1;;
28455;SDS011;15682;56.742;38.866;2022-12-24T10:10:13;15.6;;;9.0;;
28455;SDS011;15682;56.742;38.866;2022-12-24T10:12:13;15.9;;;8.3;;
28455;SDS011;15682;56.742;38.866;2022-12-24T10:14:15;12.9;;;8.3;;
28455;SDS011;15682;56.742;38.866;2022-12-24T10:16:13;13.3;;;8.4;;
28455;SDS011;15682;56.742;38.866;2022-12-24T10:18:15;13.9;;;7.7;;
28455;SDS011;15682;56.742;38.866;2022-12-24T10:20:18;11.2;;;7.6;;
28455;SDS011;15682;56.742;38.866;2022-12-24T10:22:13;14.1;;;7.5;;
28455;SDS011;15682;56.742;38.866;2022-12-24T10:24:11;11.0;;;7.2;;
28455;SDS011;15682;56.742;38.866;2022-12-24T10:26:12;10.6;;;6.9;;
28455;SDS011;15682;56.742;38.866;2022-12-24T10:28:13;11.3;;;6.9;;
28455;SDS011;15682;56.742;38.866;2022-12-24T10:32:14;10.7;;;6.6;;
28455;SDS011;15682;56.742;38.866;2022-12-24T10:34:12;11.7;;;6.5;;
28455;SDS011;15682;56.742;38.866;2022-12-24T10:36:13;10.5;;;6.3;;
28455;SDS011;15682;56.742;38.866;2022-12-24T10:38:10;11.3;;;7.2;;
28455;SDS011;15682;56.742;38.866;2022-12-24T10:40:10;10.2;;;6.5;;
28455;SDS011;15682;56.742;38.866;2022-12-24T10:42:10;13.4;;;5.7;;
28455;SDS011;15682;56.742;38.866;2022-12-24T10:44:11;8.3;;;5.3;;
28455;SDS011;15682;56.742;38.866;2022-12-24T10:46:13;7.9;;;4.4;;
28455;SDS011;15682;56.742;38.866;2022-12-24T10:48:13;8.4;;;4.3;;
28455;SDS011;15682;56.742;38.866;2022-12-24T10:50:12;6.6;;;4.5;;
28455;SDS011;15682;56.742;38.866;2022-12-24T10:52:11;6.1;;;4.3;;
28455;SDS011;15682;56.742;38.866;2022-12-24T10:54:11;7.3;;;4.1;;
28455;SDS011;15682;56.742;38.866;2022-12-24T10:56:10;6.3;;;4.0;;
28455;SDS011;15682;56.742;38.866;2022-12-24T10:58:12;7.5;;;4.2;;
28455;SDS011;15682;56.742;38.866;2022-12-24T11:00:17;6.4;;;4.0;;
28455;SDS011;15682;56.742;38.866;2022-12-24T11:02:24;4.6;;;3.2;;
28455;SDS011;15682;56.742;38.866;2022-12-24T11:04:15;5.2;;;3.7;;
28455;SDS011;15682;56.742;38.866;2022-12-24T11:06:10;4.9;;;3.5;;
28455;SDS011;15682;56.742;38.866;2022-12-24T11:08:13;5.7;;;3.7;;
28455;SDS011;15682;56.742;38.866;2022-12-24T11:10:12;5.3;;;3.5;;
28455;SDS011;15682;56.742;38.866;2022-12-24T11:12:14;6.2;;;3.5;;
28455;SDS011;15682;56.742;38.866;2022-12-24T11:14:10;4.5;;;3.2;;
28455;SDS011;15682;56.742;38.866;2022-12-24T11:16:14;5.1;;;3.5;;
28455;SDS011;15682;56.742;38.866;2022-12-24T11:18:12;5.5;;;3.7;;
28455;SDS011;15682;56.742;38.866;2022-12-24T11:20:15;4.8;;;3.5;;
28455;SDS011;15682;56.742;38.866;2022-12-24T11:22:15;5.4;;;3.6;;
28455;SDS011;15682;56.742;38.866;2022-12-24T11:24:16;4.7;;;3.4;;
28455;SDS011;15682;56.742;38.866;2022-12-24T11:26:09;6.0;;;4.1;;
28455;SDS011;15682;56.742;38.866;2022-12-24T11:28:10;7.2;;;4.1;;
28455;SDS011;15682;56.742;38.866;2022-12-24T11:30:17;5.5;;;4.0;;
28455;SDS011;15682;56.742;38.866;2022-12-24T11:32:14;5.2;;;3.7;;
28455;SDS011;15682;56.742;38.866;2022-12-24T11:34:20;5.2;;;3.7;;
28455;SDS011;15682;56.742;38.866;2022-12-24T11:36:10;5.1;;;3.7;;
28455;SDS011;15682;56.742;38.866;2022-12-24T11:38:10;5.1;;;3.7;;
28455;SDS011;15682;56.742;38.866;2022-12-24T11:40:18;7.2;;;4.5;;
28455;SDS011;15682;56.742;38.866;2022-12-24T11:42:18;5.6;;;3.9;;
28455;SDS011;15682;56.742;38.866;2022-12-24T11:44:09;6.1;;;3.7;;
28455;SDS011;15682;56.742;38.866;2022-12-24T11:46:11;8.0;;;4.3;;
28455;SDS011;15682;56.742;38.866;2022-12-24T11:48:21;6.5;;;4.1;;
28455;SDS011;15682;56.742;38.866;2022-12-24T11:52:15;8.5;;;4.6;;
28455;SDS011;15682;56.742;38.866;2022-12-24T11:54:12;8.0;;;4.9;;
28455;SDS011;15682;56.742;38.866;2022-12-24T11:56:11;9.3;;;5.0;;
28455;SDS011;15682;56.742;38.866;2022-12-24T11:58:13;7.0;;;5.1;;
28455;SDS011;15682;56.742;38.866;2022-12-24T12:00:09;9.5;;;6.2;;
28455;SDS011;15682;56.742;38.866;2022-12-24T12:02:11;9.5;;;6.4;;
28455;SDS011;15682;56.742;38.866;2022-12-24T12:04:09;10.1;;;6.4;;
28455;SDS011;15682;56.742;38.866;2022-12-24T12:06:13;8.1;;;6.0;;
28455;SDS011;15682;56.742;38.866;2022-12-24T12:08:09;6.0;;;5.0;;
28455;SDS011;15682;56.742;38.866;2022-12-24T12:10:10;8.0;;;5.5;;